createdAt,value
2017-08-12T19:56:21.725Z,29.70
2017-08-12T19:58:22.623Z,29.90
2017-08-12T20:00:23.530Z,30.70
2017-08-12T20:02:24.418Z,29.90
2017-08-12T20:04:25.312Z,30.40
2017-08-12T20:06:27.002Z,32.70
2017-08-12T20:08:27.910Z,29.67
2017-08-12T20:10:28.831Z,28.63
2017-08-12T20:12:29.718Z,26.87
2017-08-12T20:14:30.619Z,26.03
2017-08-12T20:16:32.267Z,23.37
2017-08-12T20:18:33.910Z,22.17
2017-08-12T20:20:35.572Z,22.40
2017-08-12T20:22:36.477Z,20.43
2017-08-12T20:24:37.378Z,18.13
2017-08-12T20:26:38.273Z,15.77
2017-08-12T20:28:39.190Z,15.53
2017-08-12T20:30:40.100Z,15.47
2017-08-12T20:32:40.985Z,14.53
2017-08-12T20:34:42.626Z,13.67
2017-08-12T20:36:43.538Z,12.80
2017-08-12T20:38:45.182Z,11.50
2017-08-12T20:40:46.084Z,11.20
2017-08-12T20:42:46.972Z,9.67
2017-08-12T20:44:47.863Z,9.97
2017-08-12T20:46:48.775Z,8.83
2017-08-12T20:48:49.699Z,9.23
2017-08-12T20:50:50.599Z,9.83
2017-08-12T20:52:51.518Z,9.60
2017-08-12T20:54:52.416Z,9.10
2017-08-12T20:56:53.338Z,10.43
2017-08-12T20:58:54.278Z,9.37
2017-08-12T21:00:55.182Z,10.20
2017-08-12T21:02:56.097Z,9.60
2017-08-12T21:04:56.990Z,8.83
2017-08-12T21:06:57.877Z,9.23
2017-08-12T21:08:59.534Z,10.80
2017-08-12T21:11:01.190Z,13.30
2017-08-12T21:13:02.119Z,15.10
2017-08-12T21:15:03.024Z,17.03
2017-08-12T21:17:03.935Z,18.77
2017-08-12T21:19:05.577Z,20.30
2017-08-12T21:21:07.241Z,21.57
2017-08-12T21:23:08.163Z,23.50
2017-08-12T21:25:09.061Z,25.13
2017-08-12T21:27:09.956Z,27.80
2017-08-12T21:29:11.654Z,28.40
2017-08-12T21:31:12.545Z,25.90
2017-08-12T21:33:14.190Z,30.67
2017-08-12T21:35:15.085Z,32.50
2017-08-12T21:37:16.721Z,31.77
2017-08-12T21:39:17.626Z,33.30
2017-08-12T21:41:18.541Z,32.97
2017-08-12T21:43:19.478Z,34.13
2017-08-12T21:45:20.373Z,34.90
2017-08-12T21:47:21.270Z,34.20
2017-08-12T21:49:22.181Z,34.77
2017-08-12T21:51:23.071Z,37.77
2017-08-12T21:53:23.982Z,38.43
2017-08-12T21:55:24.897Z,38.20
2017-08-12T21:57:25.786Z,37.70
2017-08-12T21:59:26.711Z,38.20
2017-08-12T22:01:27.609Z,37.77
2017-08-12T22:03:28.497Z,38.83
2017-08-12T22:05:29.410Z,41.87
2017-08-12T22:07:30.310Z,40.07
2017-08-12T22:09:31.229Z,41.27
2017-08-12T22:11:32.123Z,37.97
2017-08-12T22:13:33.034Z,38.77
2017-08-12T22:15:34.717Z,36.97
2017-08-12T22:17:35.610Z,38.13
2017-08-12T22:19:36.514Z,41.57
2017-08-12T22:21:38.149Z,41.00
2017-08-12T22:23:39.802Z,40.50
2017-08-12T22:25:40.717Z,44.20
2017-08-12T22:27:41.601Z,39.90
2017-08-12T22:29:42.506Z,42.93
2017-08-12T22:31:43.425Z,44.10
2017-08-12T22:33:44.341Z,42.87
2017-08-12T22:35:45.241Z,41.60
2017-08-12T22:37:46.135Z,42.37
2017-08-12T22:39:47.785Z,40.87
2017-08-12T22:41:48.690Z,38.70
2017-08-12T22:43:49.593Z,41.23
2017-08-12T22:45:51.258Z,39.90
2017-08-12T22:47:52.898Z,40.00
2017-08-12T22:49:54.554Z,39.97
2017-08-12T22:51:55.485Z,39.90
2017-08-12T22:53:56.413Z,38.50
2017-08-12T22:55:57.318Z,42.10
2017-08-12T22:57:58.215Z,37.13
2017-08-12T22:59:59.104Z,40.43
2017-08-12T23:02:00.010Z,37.30
2017-08-12T23:04:00.901Z,38.07
2017-08-12T23:06:02.545Z,38.23
2017-08-12T23:08:03.433Z,40.97
2017-08-12T23:10:04.330Z,35.40
2017-08-12T23:12:05.232Z,38.17
2017-08-12T23:14:06.465Z,40.50
2017-08-12T23:16:07.394Z,42.40
2017-08-12T23:18:08.333Z,43.63
2017-08-12T23:20:09.250Z,39.77
2017-08-12T23:22:10.152Z,36.13
2017-08-12T23:24:11.057Z,35.53
2017-08-12T23:26:11.954Z,36.90
2017-08-12T23:28:13.604Z,39.77
2017-08-12T23:30:14.529Z,38.40
2017-08-12T23:32:16.169Z,41.97
2017-08-12T23:34:17.804Z,39.97
2017-08-12T23:36:18.723Z,37.50
2017-08-12T23:38:19.630Z,42.47
2017-08-12T23:40:20.518Z,39.47
2017-08-12T23:42:21.446Z,44.20
2017-08-12T23:44:22.342Z,45.50
2017-08-12T23:46:23.233Z,49.87
2017-08-12T23:48:24.141Z,48.83
2017-08-12T23:50:25.795Z,53.67
2017-08-12T23:52:26.692Z,58.97
2017-08-12T23:54:28.387Z,56.00
2017-08-12T23:56:29.288Z,55.10
2017-08-12T23:58:30.201Z,54.90
